»·PEaware :: N3334X KCMA-KLGB

N3334X :: KCMA-KLGB

FLIGHT INFORMATION

Flight Status: Arrived
Operator: Privately registered:
United States
More flights under this callsign
Pilot: John N. (18861)
Aircraft: COLUMBIA 400
(COL4)
More flights by this aircraft type
Origin: KCMA Camarillo
United States
Destination: KLGB Long Beach
United States
More flights between these airports :: More routes between these airports
Route: +VTU V208 SXC SLI
File this flight plan on PilotEdge
Remarks:
Altitude:
(Current/Filed)
5,000ft
Speed:
(Current/Filed)
170kts
Departed: 14-Mar-19 05:14 PM
Arrived: 14-Mar-19 05:50 PM
Distance/Time
Traveled:
53nm/0:36
Distance/Time
To Go:
Arrived

Flight Plot

Page will automatically refresh every two minutes.


Map Options




Map Legend


Flown Route
Filed Route
Departure Airport
Arrival Airport
Navaid (VOR, NDB)
Fix

Horizontal Profiles

Position Reports

Time Latitude Longitude Heading Altitude Ground
Speed
14-Mar-19 16:52 34.210357 -119.076457 58 81ft 0kts
14-Mar-19 16:53 34.210356 -119.076457 58 81ft 0kts
14-Mar-19 16:54 34.210357 -119.076456 58 81ft 0kts
14-Mar-19 16:56 34.210958 -119.077376 343 81ft 0kts
14-Mar-19 16:57 34.211035 -119.077404 12 81ft 0kts
14-Mar-19 16:58 34.210897 -119.080416 271 81ft 22kts
14-Mar-19 16:59 34.210939 -119.087811 271 81ft 22kts
14-Mar-19 17:00 34.210967 -119.094603 274 81ft 20kts
14-Mar-19 17:01 34.211288 -119.101077 296 81ft 19kts
14-Mar-19 17:02 34.212929 -119.104222 55 81ft 0kts
14-Mar-19 17:03 34.212929 -119.104222 55 81ft 0kts
14-Mar-19 17:04 34.212929 -119.104222 55 81ft 0kts
14-Mar-19 17:05 34.212929 -119.104222 55 81ft 0kts
14-Mar-19 17:06 34.212929 -119.104222 55 81ft 0kts
14-Mar-19 17:07 34.212929 -119.104223 55 81ft 0kts
14-Mar-19 17:08 34.212929 -119.104223 55 81ft 0kts
14-Mar-19 17:09 34.212929 -119.104222 55 81ft 0kts
14-Mar-19 17:10 34.212929 -119.104222 55 81ft 0kts
14-Mar-19 17:11 34.212929 -119.104223 55 81ft 0kts
14-Mar-19 17:12 34.212929 -119.104222 55 81ft 0kts
14-Mar-19 17:13 34.212930 -119.104221 59 81ft 0kts
14-Mar-19 17:14 34.213672 -119.098759 92 160ft 77kts
14-Mar-19 17:14 34.204454 -119.085014 171 1160ft 127kts
14-Mar-19 17:16 34.184568 -119.114292 244 2407ft 156kts
14-Mar-19 17:17 34.166855 -119.154720 244 3833ft 159kts
14-Mar-19 17:17 34.153243 -119.185291 244 4006ft 181kts
14-Mar-19 17:18 34.125044 -119.225958 167 4336ft 153kts
14-Mar-19 17:20 34.109546 -119.182742 83 4705ft 136kts
14-Mar-19 17:20 34.108095 -119.152044 79 5582ft 115kts
14-Mar-19 17:21 34.111566 -119.110007 83 6898ft 134kts
14-Mar-19 17:22 34.107376 -119.057469 136 7018ft 196kts
14-Mar-19 17:23 34.051118 -119.043315 172 7019ft 212kts
14-Mar-19 17:24 33.992175 -119.036768 172 7018ft 214kts
14-Mar-19 17:25 33.932840 -119.030535 173 7014ft 210kts
14-Mar-19 17:26 33.876060 -119.024568 173 7016ft 207kts
14-Mar-19 17:27 33.818978 -119.018597 173 7015ft 206kts
14-Mar-19 17:28 33.772131 -118.986900 128 7012ft 199kts
14-Mar-19 17:29 33.735946 -118.936245 127 7011ft 200kts
14-Mar-19 17:30 33.700074 -118.884767 127 7010ft 201kts
14-Mar-19 17:31 33.664200 -118.833224 127 7011ft 199kts
14-Mar-19 17:32 33.628848 -118.782508 126 7012ft 194kts
14-Mar-19 17:33 33.593978 -118.732439 126 7017ft 196kts
14-Mar-19 17:34 33.558746 -118.682072 127 7017ft 198kts
14-Mar-19 17:35 33.523557 -118.631149 117 7007ft 197kts
14-Mar-19 17:36 33.544543 -118.577657 57 7018ft 187kts
14-Mar-19 17:37 33.570023 -118.522992 61 7014ft 188kts
14-Mar-19 17:38 33.595319 -118.467750 62 6833ft 197kts
14-Mar-19 17:39 33.622003 -118.410498 51 6161ft 181kts
14-Mar-19 17:40 33.647584 -118.350095 63 4341ft 216kts
14-Mar-19 17:41 33.668690 -118.293917 68 3889ft 161kts
14-Mar-19 17:42 33.678605 -118.246068 64 3965ft 141kts
14-Mar-19 17:43 33.699023 -118.199367 54 3970ft 173kts
14-Mar-19 17:44 33.722763 -118.153966 54 3931ft 153kts
14-Mar-19 17:45 33.741024 -118.121023 43 2950ft 116kts
14-Mar-19 17:46 33.765313 -118.107534 355 1496ft 117kts
14-Mar-19 17:47 33.787337 -118.114951 322 681ft 79kts
14-Mar-19 17:48 33.803548 -118.133705 315 282ft 77kts
14-Mar-19 17:49 33.813687 -118.146434 296 64ft 2kts
14-Mar-19 17:50 33.814960 -118.148922 264 64ft 4kts

Navigation Log

Ident Type
Flight plan parsing failed, navigation log unavailable